Have you ever worn a shirt? Buy one here!

We Are Winnipeg.

Screenshot by Aaron

Come explore the heart of Canada. 


  Upcoming Events

Saturday Night Shuffle  June 2, 2024 00:00z
Saturday Night Shuffle  June 16, 2024 00:00z
Northern Lights to Desert Skies: Crossfire  June 23, 2024 19:00z

  Top Controllers this Month

Ty Treverton 1711875
18:04

Zaid 1347775
17:52

Dylan 1310670
14:46

John 1775910
13:39

Adam Brookman 1669855
12:55

  Online Controllers

No controllers online.

  Weather

CYWG - Winnipeg / James Armstrong Richardson International Airport   VFR
CYWG 222300Z 02017KT 15SM SCT048 SCT083 BKN250 15/08 A2972 RMK CU3AC1CI4 AC TR SLP069 DENSITY ALT 1300FT

CYXE - Saskatoon John G. Diefenbaker International Airport   VFR
CYXE 222300Z 04011KT 15SM OVC033 09/05 A2988 RMK CU8 SLP140

CYQT - Thunder Bay Airport   MVFR
CYQT 222300Z 26016G25KT 20SM -SHRA BKN026 BKN045 OVC085 09/04 A2944 RMK SC5SC2AC1 CVCTV CLD EMBD SLP977

CYQR - Regina International Airport   VFR
CYQR 222300Z 01010KT 15SM BKN044 14/03 A2978 RMK CU7 SLP108 DENSITY ALT 2400FT

CYMJ - Moose Jaw Air Vice Marshal C. M. McEwen Airport   VFR
CYMJ 222300Z 02014G20KT 15SM SCT045 BKN062 14/04 A2978 RMK CU4CU3 DENSITY ALT 2430FT SLP100

CYPG - Portage-la-Prairie / Southport Airport   VFR
CYPG 222300Z 35013G20KT 15SM FEW032 FEW090 SCT270 16/08 A2974 RMK CU1AC1CI1 DENSITY ALT 1522FT SLP076